Amber, Washington
Current Conditions -  °F | °C
As of 10:27 PM on Tuesday 25 Nov 2014 (Local Time) from KSKA Reporting Station
Drizzle Drizzle  
Wind Chill: 27°   Ceiling: 400
Heat Index: 32°   Visibility: 5mi
Dew Point: 32°   Wind: 5mph
Humidity: 100%   Direction: 20°NNE
Pressure: 30.16"   Gusts: NA
Location:  47.411°N, 117.628°W
Report Text: KSKA 260627Z AUTO 02004KT 5SM R05/5000FT -DZ BR OVC004 00/00 A3016 RMK AO2 VIS 1 1/2 RWY23 SNE0556RAB0556E0602DZB0602E0607B0624
Loading
Personal Weather Stations






























Interactive Weather Map New forecast layout! Learn more

10-Day Weather Forecast

Advertisements
Track Severe Weather on mobile